KY4GW Weather Reports


Display with metric or nautical units.
time (UTC)temp
F
wind
direction
speed
MPH
gust
MPH
rain 1hr
in
rain 24hr
in
rain mn
in
humidity
%
barometer
mb
20260903020214 75 126 0.0 0.0 0.00 0.00 0.00 85 1020.1
20260903015710 76 126 0.0 0.0 0.00 0.00 0.00 85 1020.1
20260903015205 76 126 0.0 0.0 0.00 0.00 0.00 85 1020.1
20260903014701 76 126 0.0 0.0 0.00 0.00 0.00 85 1020.1
20260903014200 76 126 0.0 0.0 0.00 0.00 0.00 84 1020.1
20260903013655 76 126 0.0 0.0 0.00 0.00 0.00 82 1020.1
20260903013154 76 126 0.0 0.0 0.00 0.00 0.00 83 1020.1
20260903012653 77 126 0.0 0.0 0.00 0.00 0.00 84 1019.6
20260903012152 77 126 0.0 0.0 0.00 0.00 0.00 83 1019.6
20260903011647 77 126 0.0 0.0 0.00 0.00 0.00 84 1019.6
20260903011146 77 126 0.0 0.0 0.00 0.00 0.00 85 1020.1
20260903010642 78 126 0.0 0.0 0.00 0.00 0.00 86 1020.1
20260903010140 78 126 0.0 0.0 0.00 0.00 0.00 85 1020.1
20260903005635 78 126 0.0 0.0 0.00 0.00 0.00 84 1020.1
20260903005131 78 126 0.0 0.0 0.00 0.00 0.00 83 1020.1
20260903004631 79 126 0.0 0.0 0.00 0.00 0.00 82 1020.1
20260903004121 80 126 0.0 0.0 0.00 0.00 0.00 77 1019.6
20260903003616 80 126 0.0 0.0 0.00 0.00 0.00 77 1019.6
20260903003111 80 126 0.0 0.0 0.00 0.00 0.00 77 1019.6
20260903002606 80 126 0.0 0.0 0.00 0.00 0.00 76 1019.6
20260903002100 81 126 0.0 0.0 0.00 0.00 0.00 78 1019.6
20260903001555 81 126 0.0 0.0 0.00 0.00 0.00 75 1019.6
20260903001055 82 126 0.0 0.0 0.00 0.00 0.00 75 1019.6
20260903000551 82 126 0.0 0.0 0.00 0.00 0.00 74 1019.6
20260903000044 83 126 0.0 0.0 0.00 0.00 0.00 71 1019.6
20260902235543 83 126 0.0 0.0 0.00 0.00 0.00 70 1019.6
20260902235039 84 126 0.0 0.0 0.00 0.00 0.00 67 1019.6
20260902234538 84 126 0.0 0.0 0.00 0.00 0.00 67 1019.6
20260902234037 85 126 0.0 0.0 0.00 0.00 0.00 66 1019.6
20260902233532 85 126 0.0 0.0 0.00 0.00 0.00 65 1019.6
20260902233026 86 126 0.0 0.0 0.00 0.00 0.00 62 1019.6
20260902232526 86 126 0.0 0.0 0.00 0.00 0.00 63 1019.6
20260902232020 87 126 0.0 0.0 0.00 0.00 0.00 62 1019.6
20260902231515 87 126 0.0 0.0 0.00 0.00 0.00 62 1019.6
20260902231010 87 126 0.0 0.0 0.00 0.00 0.00 61 1019.6
20260902230509 87 126 0.0 0.0 0.00 0.00 0.00 61 1019.6
20260902230008 88 126 0.0 0.0 0.00 0.00 0.00 60 1019.6
20260902225504 88 126 0.0 0.0 0.00 0.00 0.00 60 1019.6
20260902224958 88 126 0.0 0.0 0.00 0.00 0.00 59 1019.6
20260902224457 89 126 0.0 0.0 0.00 0.00 0.00 59 1019.6
20260902223954 89 126 0.0 0.0 0.00 0.00 0.00 60 1019.6
20260902223449 89 126 0.0 0.0 0.00 0.00 0.00 60 1019.6
20260902222949 89 126 0.0 0.0 0.00 0.00 0.00 56 1020.1
20260902222447 89 126 0.0 0.0 0.00 0.00 0.00 57 1020.1
20260902221947 90 126 0.0 0.0 0.00 0.00 0.00 55 1020.1
20260902221446 90 126 0.0 0.0 0.00 0.00 0.00 56 1020.1
20260902220942 90 126 0.0 0.0 0.00 0.00 0.00 56 1020.1
20260902220441 90 126 0.0 0.0 0.00 0.00 0.00 55 1019.6
20260902215936 90 126 0.0 0.0 0.00 0.00 0.00 57 1019.6
20260902215432 90 126 0.0 0.0 0.00 0.00 0.00 59 1019.6
20260902214928 91 126 0.0 0.0 0.00 0.00 0.00 55 1019.6
20260902214426 91 126 0.0 0.0 0.00 0.00 0.00 56 1020.1
20260902213921 91 126 0.0 0.0 0.00 0.00 0.00 57 1020.1
20260902213417 91 126 0.0 0.0 0.00 0.00 0.00 57 1020.1
20260902212915 91 126 0.0 0.0 0.00 0.00 0.00 54 1020.1
20260902212412 92 126 0.0 0.0 0.00 0.00 0.00 55 1020.1
20260902211908 92 126 0.0 0.0 0.00 0.00 0.00 59 1020.1
20260902211404 93 126 2.0 2.0 0.00 0.00 0.00 50 1020.1
20260902210859 94 216 0.0 0.0 0.00 0.00 0.00 49 1020.1
20260902210358 95 198 0.0 0.0 0.00 0.00 0.00 51 1020.1
20260902205857 95 216 0.0 0.0 0.00 0.00 0.00 50 1020.1
20260902205351 95 150 0.0 0.0 0.00 0.00 0.00 50 1020.1
20260902204847 95 278 0.0 0.0 0.00 0.00 0.00 51 1020.1
20260902204341 94 168 0.0 0.0 0.00 0.00 0.00 52 1020.4
20260902203838 95 234 1.0 1.0 0.00 0.00 0.00 52 1020.4
20260902203338 95 162 0.0 0.0 0.00 0.00 0.00 52 1020.4
20260902202832 95 114 0.0 0.0 0.00 0.00 0.00 51 1020.4
20260902202328 94 246 0.0 0.0 0.00 0.00 0.00 53 1020.4
20260902201825 93 30 0.0 0.0 0.00 0.00 0.00 53 1020.4
20260902201324 93 264 0.0 0.0 0.00 0.00 0.00 53 1020.4
20260902200820 94 156 2.0 2.0 0.00 0.00 0.00 51 1020.4
20260902200314 93 156 0.0 0.0 0.00 0.00 0.00 49 1020.4
20260902195810 94 12 3.0 3.0 0.00 0.00 0.00 53 1020.7
20260902195309 94 12 3.0 3.0 0.00 0.00 0.00 53 1020.7
20260902194804 94 210 0.0 0.0 0.00 0.00 0.00 54 1020.7
20260902194259 94 114 0.0 0.0 0.00 0.00 0.00 54 1021.1
20260902193754 0 0.0 0.0 0.00 0.00 0.00 1021.1
20260902193250 94 288 0.0 0.0 0.00 0.00 0.00 57 1021.1
20260902192748 94 288 0.0 0.0 0.00 0.00 0.00 57 1021.1
20260902192248 94 288 0.0 0.0 0.00 0.00 0.00 57 1021.1
20260902191747 94 264 0.0 0.0 0.00 0.00 0.00 54 1021.1
20260902191242 93 78 1.0 1.0 0.00 0.00 0.00 56 1021.1
20260902190738 93 156 1.0 1.0 0.00 0.00 0.00 52 1021.1
20260902190237 93 168 0.0 0.0 0.00 0.00 0.00 53 1021.1
20260902185733 93 246 0.0 0.0 0.00 0.00 0.00 57 1021.4
20260902185229 93 264 0.0 0.0 0.00 0.00 0.00 52 1021.4
20260902184724 93 198 0.0 0.0 0.00 0.00 0.00 55 1021.4
20260902184220 94 306 0.0 0.0 0.00 0.00 0.00 54 1021.4
20260902183716 93 246 0.0 0.0 0.00 0.00 0.00 55 1021.4
20260902183212 93 156 0.0 0.0 0.00 0.00 0.00 55 1021.4
20260902182708 93 198 0.0 0.0 0.00 0.00 0.00 54 1021.4
20260902182204 93 282 0.0 0.0 0.00 0.00 0.00 58 1021.4
20260902181659 92 186 0.0 0.0 0.00 0.00 0.00 55 1021.4
20260902181154 93 330 2.0 2.0 0.00 0.00 0.00 54 1021.4
20260902180654 93 258 0.0 0.0 0.00 0.00 0.00 55 1021.4
20260902180149 93 114 0.0 0.0 0.00 0.00 0.00 54 1021.4
20260902175649 93 204 2.0 2.0 0.00 0.00 0.00 54 1021.4
20260902175145 94 96 2.0 2.0 0.00 0.00 0.00 53 1021.4
20260902174641 93 114 0.0 0.0 0.00 0.00 0.00 57 1021.4
20260902174137 94 26 1.0 1.0 0.00 0.00 0.00 55 1021.8
20260902173632 93 162 0.0 0.0 0.00 0.00 0.00 55 1021.8
20260902173127 93 156 1.0 1.0 0.00 0.00 0.00 57 1021.8
20260902172621 92 294 1.0 1.0 0.00 0.00 0.00 57 1022.1
20260902172121 92 126 2.0 2.0 0.00 0.00 0.00 57 1022.1
20260902171616 92 270 2.0 2.0 0.00 0.00 0.00 57 1022.1
20260902171112 91 324 0.0 0.0 0.00 0.00 0.00 54 1022.4
20260902170608 91 289 4.0 4.0 0.00 0.00 0.00 58 1022.4
20260902170103 92 198 0.0 0.0 0.00 0.00 0.00 60 1022.4
20260902165602 93 168 2.0 2.0 0.00 0.00 0.00 56 1022.4
20260902165057 93 198 2.0 2.0 0.00 0.00 0.00 58 1022.4
20260902164553 92 78 0.0 0.0 0.00 0.00 0.00 57 1022.4
20260902164051 91 198 0.0 0.0 0.00 0.00 0.00 58 1022.4
20260902163547 91 300 3.0 3.0 0.00 0.00 0.00 58 1022.4
20260902163045 92 264 2.0 2.0 0.00 0.00 0.00 58 1022.4
20260902162539 92 318 1.0 1.0 0.00 0.00 0.00 61 1022.4
20260902162035 92 48 0.0 0.0 0.00 0.00 0.00 60 1022.4
20260902161535 92 216 0.0 0.0 0.00 0.00 0.00 57 1022.4
20260902161030 92 174 0.0 0.0 0.00 0.00 0.00 61 1022.4
20260902160526 92 222 0.0 0.0 0.00 0.00 0.00 59 1022.4
20260902160021 91 138 0.0 0.0 0.00 0.00 0.00 60 1022.8
20260902155514 90 168 0.0 0.0 0.00 0.00 0.00 61 1022.8
20260902155013 90 174 2.0 2.0 0.00 0.00 0.00 63 1022.8
20260902154509 90 270 0.0 0.0 0.00 0.00 0.00 63 1022.8
20260902154003 89 294 0.0 0.0 0.00 0.00 0.00 64 1022.8
20260902153502 89 330 2.0 2.0 0.00 0.00 0.00 61 1022.8
20260902152957 89 216 0.0 0.0 0.00 0.00 0.00 64 1022.8
20260902152454 89 192 0.0 0.0 0.00 0.00 0.00 62 1022.8
20260902151949 88 54 2.0 2.0 0.00 0.00 0.00 64 1022.8
20260902151445 88 277 0.0 0.0 0.00 0.00 0.00 63 1022.8
20260902150944 89 234 2.0 2.0 0.00 0.00 0.00 63 1022.8
20260902150441 91 222 0.0 0.0 0.00 0.00 0.00 59 1022.4
20260902145940 90 222 0.0 0.0 0.00 0.00 0.00 59 1022.4
20260902145436 89 222 0.0 0.0 0.00 0.00 0.00 63 1022.4
20260902144930 88 222 1.0 1.0 0.00 0.00 0.00 62 1022.4
20260902144426 89 222 0.0 0.0 0.00 0.00 0.00 62 1022.8
20260902143926 90 222 0.0 0.0 0.00 0.00 0.00 64 1022.8
20260902143421 89 222 0.0 0.0 0.00 0.00 0.00 64 1022.8
20260902142916 88 222 0.0 0.0 0.00 0.00 0.00 63 1022.4
20260902142413 88 222 0.0 0.0 0.00 0.00 0.00 63 1022.4
20260902141908 89 222 0.0 0.0 0.00 0.00 0.00 62 1022.4
20260902141403 91 222 0.0 0.0 0.00 0.00 0.00 60 1022.8
20260902140902 89 222 0.0 0.0 0.00 0.00 0.00 61 1022.8
20260902140358 89 222 0.0 0.0 0.00 0.00 0.00 66 1022.8
20260902135852 90 222 0.0 0.0 0.00 0.00 0.00 62 1022.4
20260902135348 89 222 0.0 0.0 0.00 0.00 0.00 62 1022.4
20260902134846 88 222 0.0 0.0 0.00 0.00 0.00 67 1022.4
20260902134342 88 222 0.0 0.0 0.00 0.00 0.00 67 1022.8
20260902133837 89 222 0.0 0.0 0.00 0.00 0.00 63 1022.8
20260902133337 89 222 0.0 0.0 0.00 0.00 0.00 63 1022.8
20260902132832 89 222 0.0 0.0 0.00 0.00 0.00 64 1022.8
20260902132327 89 222 0.0 0.0 0.00 0.00 0.00 63 1022.8
20260902131823 88 222 0.0 0.0 0.00 0.00 0.00 65 1022.4
20260902131320 87 222 0.0 0.0 0.00 0.00 0.00 66 1022.4
20260902130819 88 222 0.0 0.0 0.00 0.00 0.00 65 1022.4
20260902130315 88 222 0.0 0.0 0.00 0.00 0.00 65 1022.4
20260902125810 86 222 0.0 0.0 0.00 0.00 0.00 68 1022.4
20260902125306 83 222 0.0 0.0 0.00 0.00 0.00 71 1022.4
20260902124802 83 222 0.0 0.0 0.00 0.00 0.00 71 1022.4
20260902124257 0 0.0 0.0 0.00 0.00 0.00 1022.4
20260902123752 80 222 0.0 0.0 0.00 0.00 0.00 76 1022.4
20260902123248 80 222 0.0 0.0 0.00 0.00 0.00 76 1022.4
20260902122747 80 222 0.0 0.0 0.00 0.00 0.00 76 1022.4
20260902122243 79 222 0.0 0.0 0.00 0.00 0.00 77 1022.4
20260902121743 76 222 0.0 0.0 0.00 0.00 0.00 80 1022.4
20260902121238 76 222 0.0 0.0 0.00 0.00 0.00 80 1022.4
20260902120733 75 222 0.0 0.0 0.00 0.00 0.00 83 1022.4
20260902120229 72 222 0.0 0.0 0.00 0.00 0.00 91 1022.1
20260902115724 71 222 0.0 0.0 0.00 0.00 0.00 92 1022.1
20260902115220 70 222 0.0 0.0 0.00 0.00 0.00 94 1022.1
20260902114716 70 222 0.0 0.0 0.00 0.00 0.00 96 1022.1
20260902114211 70 222 0.0 0.0 0.00 0.00 0.00 96 1022.1
20260902113712 69 222 0.0 0.0 0.00 0.00 0.00 96 1022.1
20260902113207 69 222 0.0 0.0 0.00 0.00 0.00 96 1022.1
20260902112706 69 222 0.0 0.0 0.00 0.00 0.00 96 1022.1
20260902112204 68 222 0.0 0.0 0.00 0.00 0.00 96 1022.1
20260902111659 68 222 0.0 0.0 0.00 0.00 0.00 96 1022.1
20260902111155 68 222 0.0 0.0 0.00 0.00 0.00 96 1021.8
20260902110650 68 222 0.0 0.0 0.00 0.00 0.00 96 1021.8
20260902110147 68 222 0.0 0.0 0.00 0.00 0.00 96 1021.8
20260902105646 69 222 0.0 0.0 0.00 0.00 0.00 96 1021.4
20260902105141 69 222 0.0 0.0 0.00 0.00 0.00 96 1021.4
20260902104637 69 222 0.0 0.0 0.00 0.00 0.00 96 1021.4
20260902104132 69 222 0.0 0.0 0.00 0.00 0.00 96 1021.4
20260902103631 69 222 0.0 0.0 0.00 0.00 0.00 96 1021.4
20260902103127 69 222 0.0 0.0 0.00 0.00 0.00 96 1021.4
20260902102623 69 222 0.0 0.0 0.00 0.00 0.00 96 1021.4
20260902102120 69 222 0.0 0.0 0.00 0.00 0.00 96 1021.4
20260902101615 69 222 0.0 0.0 0.00 0.00 0.00 96 1021.4
20260902101115 69 222 0.0 0.0 0.00 0.00 0.00 96 1021.4
20260902100609 69 222 0.0 0.0 0.00 0.00 0.00 96 1021.4
20260902100104 69 222 0.0 0.0 0.00 0.00 0.00 96 1021.4
20260902095603 69 222 0.0 0.0 0.00 0.00 0.00 96 1021.4
20260902095102 69 222 0.0 0.0 0.00 0.00 0.00 96 1021.4
20260902094558 69 222 0.0 0.0 0.00 0.00 0.00 96 1021.4
20260902094054 69 222 0.0 0.0 0.00 0.00 0.00 96 1021.4
20260902093553 69 222 0.0 0.0 0.00 0.00 0.00 96 1021.4
20260902093048 69 222 0.0 0.0 0.00 0.00 0.00 96 1021.1
20260902092537 69 222 0.0 0.0 0.00 0.00 0.00 96 1021.1
20260902092032 69 222 0.0 0.0 0.00 0.00 0.00 96 1021.1
20260902091528 69 222 0.0 0.0 0.00 0.00 0.00 96 1021.1
20260902091024 69 222 0.0 0.0 0.00 0.00 0.00 96 1021.1
20260902090520 69 222 0.0 0.0 0.00 0.00 0.00 96 1021.1
20260902090019 69 222 0.0 0.0 0.00 0.00 0.00 96 1021.1
20260902085519 69 222 0.0 0.0 0.00 0.00 0.00 96 1021.1
20260902085014 70 222 0.0 0.0 0.00 0.00 0.00 96 1021.1
20260902084510 70 222 0.0 0.0 0.00 0.00 0.00 96 1021.1
20260902084005 70 222 0.0 0.0 0.00 0.00 0.00 96 1021.1
20260902083501 70 222 0.0 0.0 0.00 0.00 0.00 96 1021.1
20260902082955 70 222 0.0 0.0 0.00 0.00 0.00 96 1020.7
20260902082450 70 222 0.0 0.0 0.00 0.00 0.00 96 1020.7
20260902081947 70 222 0.0 0.0 0.00 0.00 0.00 96 1020.7
20260902081443 70 222 0.0 0.0 0.00 0.00 0.00 96 1020.7
20260902080938 70 222 0.0 0.0 0.00 0.00 0.00 96 1020.7
20260902080434 70 222 0.0 0.0 0.00 0.00 0.00 96 1020.7
20260902075933 70 222 0.0 0.0 0.00 0.00 0.00 96 1020.7
20260902075430 70 222 0.0 0.0 0.00 0.00 0.00 96 1020.7
20260902074925 70 222 0.0 0.0 0.00 0.00 0.00 96 1020.7
20260902074420 70 222 0.0 0.0 0.00 0.00 0.00 96 1020.7
20260902073915 70 222 0.0 0.0 0.00 0.00 0.00 96 1020.7
20260902073411 70 222 0.0 0.0 0.00 0.00 0.00 96 1020.7
20260902072907 70 222 0.0 0.0 0.00 0.00 0.00 96 1020.7
20260902072403 70 222 0.0 0.0 0.00 0.00 0.00 96 1020.7
20260902071859 70 222 0.0 0.0 0.00 0.00 0.00 96 1020.7
20260902071358 70 222 0.0 0.0 0.00 0.00 0.00 96 1020.7
20260902070855 70 222 0.0 0.0 0.00 0.00 0.00 96 1020.7
20260902070350 70 222 0.0 0.0 0.00 0.00 0.00 96 1020.7
20260902065848 70 222 0.0 0.0 0.00 0.00 0.00 96 1021.1
20260902065344 71 222 0.0 0.0 0.00 0.00 0.00 96 1021.1
20260902064839 71 222 0.0 0.0 0.00 0.00 0.00 96 1021.1
20260902064335 71 222 0.0 0.0 0.00 0.00 0.00 96 1020.7
20260902063830 71 222 0.0 0.0 0.00 0.00 0.00 96 1020.7
20260902063331 71 222 0.0 0.0 0.00 0.00 0.00 96 1020.7
20260902062825 71 222 0.0 0.0 0.00 0.00 0.00 96 1021.1
20260902062320 71 222 0.0 0.0 0.00 0.00 0.00 96 1021.1
20260902061819 71 222 0.0 0.0 0.00 0.00 0.00 95 1021.1
20260902061315 71 222 0.0 0.0 0.00 0.00 0.00 95 1021.1
20260902060811 71 222 0.0 0.0 0.00 0.00 0.00 95 1021.1
20260902060307 71 222 0.0 0.0 0.00 0.00 0.00 95 1021.1
20260902055802 71 222 0.0 0.0 0.00 0.00 0.00 95 1021.1
20260902055259 71 222 0.0 0.0 0.00 0.00 0.00 95 1021.1
20260902054758 71 222 0.0 0.0 0.00 0.00 0.00 95 1021.1
20260902054254 71 222 0.0 0.0 0.00 0.00 0.00 95 1021.1
20260902053749 71 222 0.0 0.0 0.00 0.00 0.00 95 1021.1
20260902053248 71 222 0.0 0.0 0.00 0.00 0.00 95 1021.1
20260902052743 72 222 0.0 0.0 0.00 0.00 0.00 95 1021.1
20260902052238 72 222 0.0 0.0 0.00 0.00 0.00 95 1021.1
20260902051738 72 222 0.0 0.0 0.00 0.00 0.00 95 1021.1
20260902051232 72 222 0.0 0.0 0.00 0.00 0.00 95 1021.1
20260902050727 72 222 0.0 0.0 0.00 0.00 0.00 95 1021.1
20260902050222 72 222 0.0 0.0 0.00 0.00 0.00 95 1021.1
20260902045722 72 222 0.0 0.0 0.00 0.00 0.00 95 1021.1
20260902045219 72 222 0.0 0.0 0.00 0.00 0.00 95 1021.1
20260902044714 72 222 0.0 0.0 0.00 0.00 0.00 95 1021.1
20260902044210 72 222 0.0 0.0 0.00 0.00 0.00 95 1021.1
20260902043704 72 222 0.0 0.0 0.00 0.00 0.00 95 1021.1
20260902043200 72 222 0.0 0.0 0.00 0.00 0.00 95 1021.1
20260902042659 72 222 0.0 0.0 0.00 0.00 0.00 95 1020.7
20260902042154 72 222 0.0 0.0 0.00 0.00 0.00 95 1020.7
20260902041654 72 222 0.0 0.0 0.00 0.00 0.00 94 1020.7
20260902041149 73 222 0.0 0.0 0.00 0.00 0.00 94 1021.1
20260902040648 73 222 0.0 0.0 0.00 0.00 0.00 94 1021.1
20260902040144 73 222 0.0 0.0 0.00 0.00 0.00 94 1020.7
20260902035642 73 222 0.0 0.0 0.00 0.00 0.00 94 1020.7
20260902035138 73 222 0.0 0.0 0.00 0.00 0.00 94 1020.7
20260902034636 73 222 0.0 0.0 0.00 0.00 0.00 94 1021.1
20260902034131 73 222 0.0 0.0 0.00 0.00 0.00 94 1021.1
20260902033630 73 222 0.0 0.0 0.00 0.00 0.00 94 1021.1
20260902033125 73 222 0.0 0.0 0.00 0.00 0.00 94 1021.1
20260902032623 73 222 0.0 0.0 0.00 0.00 0.00 94 1021.1
20260902032118 73 222 0.0 0.0 0.00 0.00 0.00 94 1021.1
20260902031613 73 222 0.0 0.0 0.00 0.00 0.00 93 1021.1
20260902031109 73 222 0.0 0.0 0.00 0.00 0.00 93 1021.1
20260902030604 73 222 0.0 0.0 0.00 0.00 0.00 93 1021.1
20260902030104 74 222 0.0 0.0 0.00 0.00 0.00 93 1021.1
20260902025603 74 222 0.0 0.0 0.00 0.00 0.00 93 1021.1
20260902025059 74 222 0.0 0.0 0.00 0.00 0.00 93 1021.1
20260902024554 74 222 0.0 0.0 0.00 0.00 0.00 92 1020.7
20260902024054 74 222 0.0 0.0 0.00 0.00 0.00 92 1020.7
20260902023550 74 222 0.0 0.0 0.00 0.00 0.00 92 1020.7
20260902023045 74 222 0.0 0.0 0.00 0.00 0.00 92 1021.1
20260902022539 74 222 0.0 0.0 0.00 0.00 0.00 92 1021.1
20260902022035 74 222 0.0 0.0 0.00 0.00 0.00 91 1021.1
20260902021530 74 222 0.0 0.0 0.00 0.00 0.00 91 1021.1
20260902021030 75 222 0.0 0.0 0.00 0.00 0.00 91 1021.1